createdAt,value
2023-01-05T00:00:49.320Z,1.13
2023-01-05T00:03:16.495Z,1.00
2023-01-05T00:05:43.677Z,1.17
2023-01-05T00:08:10.781Z,0.90
2023-01-05T00:10:58.296Z,1.30
2023-01-05T00:13:45.282Z,1.20
2023-01-05T00:16:34.251Z,1.30
2023-01-05T00:19:21.284Z,2.30
2023-01-05T00:22:08.289Z,2.80
2023-01-05T00:24:35.440Z,1.20
2023-01-05T00:27:02.578Z,0.97
2023-01-05T00:29:29.722Z,1.10
2023-01-05T00:31:56.906Z,1.05
2023-01-05T00:34:24.055Z,1.50
2023-01-05T00:36:51.140Z,1.30
2023-01-05T00:39:18.256Z,1.65
2023-01-05T00:41:45.405Z,0.90
2023-01-05T00:44:12.526Z,1.48
2023-01-05T00:46:39.651Z,1.50
2023-01-05T00:49:06.832Z,1.00
2023-01-05T00:51:33.940Z,0.70
2023-01-05T00:54:01.029Z,1.38
2023-01-05T00:56:28.219Z,1.70
2023-01-05T00:58:55.358Z,2.17
2023-01-05T01:01:22.780Z,1.30
2023-01-05T01:03:50.018Z,1.90
2023-01-05T01:06:17.740Z,1.65
2023-01-05T01:08:44.897Z,1.00
2023-01-05T01:11:12.079Z,0.98
2023-01-05T01:13:39.060Z,1.65
2023-01-05T01:16:07.215Z,1.00
2023-01-05T01:18:34.398Z,1.60
2023-01-05T01:21:01.508Z,1.00
2023-01-05T01:23:28.643Z,1.00
2023-01-05T01:25:56.555Z,1.27
2023-01-05T01:28:24.281Z,1.05
2023-01-05T01:30:51.514Z,0.90
2023-01-05T01:33:18.561Z,0.90
2023-01-05T01:35:47.573Z,0.88
2023-01-05T01:38:14.737Z,1.50
2023-01-05T01:40:42.806Z,1.50
2023-01-05T01:43:09.850Z,1.30
2023-01-05T01:45:37.021Z,0.80
2023-01-05T01:48:04.281Z,0.95
2023-01-05T01:50:34.167Z,0.90
2023-01-05T01:53:03.976Z,0.95
2023-01-05T01:55:32.270Z,0.80
2023-01-05T01:58:00.826Z,0.90
2023-01-05T02:00:27.965Z,0.73
2023-01-05T02:02:56.329Z,0.70
2023-01-05T02:05:25.441Z,1.15
2023-01-05T02:07:52.564Z,0.70
2023-01-05T02:10:23.259Z,1.50
2023-01-05T02:13:10.274Z,1.10
2023-01-05T02:15:44.459Z,0.63
2023-01-05T02:18:21.250Z,0.63
2023-01-05T02:21:13.395Z,1.90
2023-01-05T02:24:00.486Z,0.70
2023-01-05T02:26:47.738Z,1.07
2023-01-05T02:29:34.810Z,0.60
2023-01-05T02:32:09.829Z,0.70
2023-01-05T02:34:41.664Z,0.70
2023-01-05T02:37:14.977Z,0.80
2023-01-05T02:39:59.268Z,0.88
2023-01-05T02:42:28.150Z,0.75
2023-01-05T02:44:55.323Z,0.80
2023-01-05T02:47:25.744Z,1.17
2023-01-05T02:49:55.847Z,1.10
2023-01-05T02:52:22.984Z,0.60
2023-01-05T02:54:53.280Z,0.70
2023-01-05T02:57:43.001Z,0.60
2023-01-05T03:00:11.252Z,0.90
2023-01-05T03:02:40.329Z,0.60
2023-01-05T03:05:11.143Z,0.90
2023-01-05T03:07:39.763Z,0.68
2023-01-05T03:10:27.176Z,1.08
2023-01-05T03:13:16.170Z,0.63
2023-01-05T03:15:44.443Z,0.80
2023-01-05T03:18:12.956Z,0.70
2023-01-05T03:20:42.485Z,0.80
2023-01-05T03:23:32.102Z,0.50
2023-01-05T03:26:19.500Z,0.50
2023-01-05T03:29:06.528Z,0.70
2023-01-05T03:31:56.854Z,0.60
2023-01-05T03:34:57.901Z,0.60
2023-01-05T03:37:27.384Z,0.50
2023-01-05T03:39:54.492Z,0.50
2023-01-05T03:42:21.911Z,1.42
2023-01-05T03:44:49.804Z,0.60
2023-01-05T03:47:17.100Z,0.70
2023-01-05T03:49:44.219Z,1.20
2023-01-05T03:52:11.381Z,0.77
2023-01-05T03:54:38.461Z,0.60
2023-01-05T03:57:05.532Z,0.80
2023-01-05T03:59:32.707Z,0.80
2023-01-05T04:01:59.875Z,0.60
2023-01-05T04:04:27.013Z,0.80
2023-01-05T04:06:54.129Z,0.80
2023-01-05T04:09:21.252Z,0.63
2023-01-05T04:11:48.357Z,0.70
2023-01-05T04:14:15.483Z,1.60
2023-01-05T04:16:42.611Z,0.85
2023-01-05T04:19:10.751Z,0.90
2023-01-05T04:21:37.879Z,0.80
2023-01-05T04:24:05.068Z,0.80
2023-01-05T04:26:32.151Z,0.82
2023-01-05T04:28:59.351Z,1.48
2023-01-05T04:31:26.520Z,0.68
2023-01-05T04:33:53.677Z,0.68
2023-01-05T04:36:20.788Z,0.60
2023-01-05T04:38:47.888Z,0.57
2023-01-05T04:41:15.011Z,1.07
2023-01-05T04:43:42.151Z,0.68
2023-01-05T04:46:09.276Z,0.60
2023-01-05T04:48:36.428Z,0.80
2023-01-05T04:51:03.472Z,0.70
2023-01-05T04:53:30.668Z,0.90
2023-01-05T04:55:57.781Z,0.80
2023-01-05T04:58:24.854Z,1.50
2023-01-05T05:00:52.045Z,1.48
2023-01-05T05:03:19.284Z,0.60
2023-01-05T05:05:46.396Z,0.60
2023-01-05T05:08:14.439Z,0.50
2023-01-05T05:10:41.557Z,0.45
2023-01-05T05:13:08.646Z,0.70
2023-01-05T05:15:35.768Z,1.27
2023-01-05T05:18:08.700Z,0.90
2023-01-05T05:20:36.433Z,0.70
2023-01-05T05:23:03.602Z,0.77
2023-01-05T05:25:30.703Z,0.50
2023-01-05T05:27:57.843Z,1.00
2023-01-05T05:30:24.931Z,0.50
2023-01-05T05:32:52.079Z,0.45
2023-01-05T05:35:19.198Z,0.60
2023-01-05T05:37:50.029Z,0.65
2023-01-05T05:40:20.023Z,1.77
2023-01-05T05:42:47.111Z,0.88
2023-01-05T05:45:14.209Z,0.80
2023-01-05T05:47:41.241Z,1.00
2023-01-05T05:50:08.484Z,1.30
2023-01-05T05:52:35.624Z,1.03
2023-01-05T05:55:02.816Z,0.70
2023-01-05T05:57:29.962Z,0.93
2023-01-05T05:59:57.124Z,0.60
2023-01-05T06:02:24.271Z,1.20
2023-01-05T06:04:51.398Z,0.40
2023-01-05T06:07:18.513Z,0.60
2023-01-05T06:09:45.639Z,0.47
2023-01-05T06:12:12.764Z,2.30
2023-01-05T06:14:39.889Z,3.40
2023-01-05T06:17:07.155Z,4.53
2023-01-05T06:19:34.246Z,6.22
2023-01-05T06:22:01.374Z,3.10
2023-01-05T06:24:28.454Z,5.55
2023-01-05T06:26:55.672Z,7.35
2023-01-05T06:29:22.818Z,6.15
2023-01-05T06:31:50.046Z,6.53
2023-01-05T06:34:17.146Z,5.10
2023-01-05T06:36:44.312Z,8.40
2023-01-05T06:39:11.443Z,5.67
2023-01-05T06:41:38.524Z,5.10
2023-01-05T06:44:06.827Z,4.28
2023-01-05T06:46:34.041Z,6.15
2023-01-05T06:49:01.246Z,7.53
2023-01-05T06:51:28.334Z,6.07
2023-01-05T06:53:55.472Z,8.20
2023-01-05T06:56:22.587Z,5.95
2023-01-05T06:58:49.673Z,7.03
2023-01-05T07:01:16.906Z,6.90
2023-01-05T07:03:44.155Z,6.55
2023-01-05T07:06:15.079Z,6.50
2023-01-05T07:08:42.406Z,4.72
2023-01-05T07:11:09.525Z,6.63
2023-01-05T07:13:36.707Z,7.00
2023-01-05T07:16:03.804Z,5.70
2023-01-05T07:18:30.963Z,8.07
2023-01-05T07:21:00.524Z,5.32
2023-01-05T07:23:28.617Z,6.75
2023-01-05T07:25:55.736Z,6.93
2023-01-05T07:28:22.900Z,5.45
2023-01-05T07:30:53.356Z,4.80
2023-01-05T07:33:20.696Z,4.40
2023-01-05T07:35:47.856Z,6.97
2023-01-05T07:38:15.073Z,5.47
2023-01-05T07:40:42.207Z,5.35
2023-01-05T07:43:09.340Z,7.00
2023-01-05T07:45:36.541Z,6.05
2023-01-05T07:48:04.028Z,4.88
2023-01-05T07:50:32.142Z,4.63
2023-01-05T07:52:59.920Z,5.57
2023-01-05T07:55:27.059Z,4.90
2023-01-05T07:57:54.253Z,9.70
2023-01-05T08:00:21.440Z,5.97
2023-01-05T08:02:48.524Z,7.87
2023-01-05T08:05:15.620Z,5.53
2023-01-05T08:07:42.865Z,4.93
2023-01-05T08:10:30.475Z,7.47
2023-01-05T08:13:25.516Z,5.37
2023-01-05T08:15:53.218Z,6.88
2023-01-05T08:18:21.000Z,7.40
2023-01-05T08:20:52.223Z,3.95
2023-01-05T08:23:25.776Z,5.50
2023-01-05T08:25:54.033Z,7.18
2023-01-05T08:28:21.252Z,6.18
2023-01-05T08:30:48.489Z,7.60
2023-01-05T08:33:15.601Z,6.68
2023-01-05T08:35:43.496Z,6.60
2023-01-05T08:38:11.096Z,7.53
2023-01-05T08:40:38.576Z,6.10
2023-01-05T08:43:06.545Z,7.07
2023-01-05T08:45:33.902Z,5.07
2023-01-05T08:48:02.129Z,5.70
2023-01-05T08:50:30.551Z,6.72
2023-01-05T08:52:57.981Z,6.03
2023-01-05T08:55:25.191Z,6.18
2023-01-05T08:57:52.340Z,5.63
2023-01-05T09:00:21.884Z,5.45
2023-01-05T09:02:49.254Z,5.85
2023-01-05T09:05:16.647Z,5.63
2023-01-05T09:07:44.912Z,8.30
2023-01-05T09:10:12.533Z,4.97
2023-01-05T09:12:39.725Z,5.22
2023-01-05T09:15:07.196Z,6.37
2023-01-05T09:17:36.088Z,5.32
2023-01-05T09:20:03.845Z,5.73
2023-01-05T09:22:32.638Z,5.40
2023-01-05T09:24:59.763Z,5.03
2023-01-05T09:27:26.890Z,7.32
2023-01-05T09:29:54.025Z,5.13
2023-01-05T09:32:21.311Z,5.70
2023-01-05T09:34:48.386Z,5.25
2023-01-05T09:37:15.694Z,6.72
2023-01-05T09:39:42.850Z,6.00
2023-01-05T09:42:14.950Z,4.70
2023-01-05T09:44:42.065Z,5.10
2023-01-05T09:47:14.554Z,4.32
2023-01-05T09:49:42.065Z,6.93
2023-01-05T09:52:10.883Z,5.90
2023-01-05T09:54:38.562Z,4.90
2023-01-05T09:57:09.848Z,5.13
2023-01-05T09:59:38.860Z,7.40
2023-01-05T10:02:15.488Z,6.15
2023-01-05T10:04:42.839Z,4.93
2023-01-05T10:07:20.132Z,3.90
2023-01-05T10:09:47.306Z,5.80
2023-01-05T10:12:43.433Z,6.13
2023-01-05T10:15:14.468Z,4.95
2023-01-05T10:17:43.711Z,6.72
2023-01-05T10:20:26.700Z,6.05
2023-01-05T10:22:57.586Z,4.30
2023-01-05T10:25:31.233Z,5.10
2023-01-05T10:28:03.802Z,4.43
2023-01-05T10:30:41.820Z,5.75
2023-01-05T10:33:39.611Z,5.15
2023-01-05T10:36:28.015Z,4.88
2023-01-05T10:39:03.978Z,4.60
2023-01-05T10:41:39.076Z,5.50
2023-01-05T10:44:11.969Z,5.07
2023-01-05T10:46:44.807Z,6.13
2023-01-05T10:49:20.214Z,5.07
2023-01-05T10:51:52.916Z,6.78
2023-01-05T10:54:34.560Z,7.68
2023-01-05T10:57:21.571Z,9.45
2023-01-05T10:59:56.955Z,5.55
2023-01-05T11:02:26.123Z,5.88
2023-01-05T11:04:54.062Z,6.03
2023-01-05T11:07:21.212Z,5.83
2023-01-05T11:09:49.371Z,7.28
2023-01-05T11:12:18.974Z,7.32
2023-01-05T11:14:52.035Z,6.28
2023-01-05T11:17:23.289Z,5.30
2023-01-05T11:19:52.115Z,4.50
2023-01-05T11:22:36.259Z,6.38
2023-01-05T11:25:23.326Z,4.83
2023-01-05T11:28:06.114Z,4.95
2023-01-05T11:30:33.533Z,6.03
2023-01-05T11:33:01.756Z,6.40
2023-01-05T11:35:32.939Z,8.75
2023-01-05T11:38:00.621Z,4.32
2023-01-05T11:40:30.109Z,6.75
2023-01-05T11:42:57.389Z,6.13
2023-01-05T11:45:28.476Z,5.60
2023-01-05T11:47:57.238Z,5.18
2023-01-05T11:50:26.437Z,5.75
2023-01-05T11:52:55.041Z,6.32
2023-01-05T11:55:22.152Z,4.47
2023-01-05T11:57:55.775Z,7.68
2023-01-05T12:00:40.204Z,4.45
2023-01-05T12:03:14.082Z,4.60
2023-01-05T12:05:45.232Z,6.53
2023-01-05T12:08:15.793Z,4.70
2023-01-05T12:10:48.775Z,5.18
2023-01-05T12:13:35.808Z,6.45
2023-01-05T12:16:03.000Z,4.70
2023-01-05T12:18:50.118Z,6.17
2023-01-05T12:21:24.043Z,4.93
2023-01-05T12:23:51.174Z,6.93
2023-01-05T12:26:21.117Z,7.22
2023-01-05T12:29:34.443Z,7.35
2023-01-05T12:33:44.411Z,5.93
2023-01-05T12:34:38.623Z,5.45
2023-01-05T12:37:26.021Z,5.63
2023-01-05T12:39:54.175Z,7.60
2023-01-05T12:42:37.785Z,7.63
2023-01-05T12:45:31.288Z,7.78
2023-01-05T12:48:01.616Z,9.00
2023-01-05T12:50:38.856Z,7.00
2023-01-05T12:53:09.304Z,7.10
2023-01-05T12:55:40.259Z,9.00
2023-01-05T12:58:12.703Z,5.85
2023-01-05T13:00:46.007Z,7.57
2023-01-05T13:03:23.711Z,8.10
2023-01-05T13:06:10.831Z,8.57
2023-01-05T13:08:41.214Z,6.50
2023-01-05T13:11:11.582Z,10.52
2023-01-05T13:13:43.902Z,7.55
2023-01-05T13:16:22.349Z,9.00
2023-01-05T13:19:09.433Z,7.25
2023-01-05T13:21:38.025Z,6.63
2023-01-05T13:24:10.534Z,6.40
2023-01-05T13:26:38.589Z,8.40
2023-01-05T13:29:06.115Z,7.80
2023-01-05T13:31:40.682Z,7.27
2023-01-05T13:34:17.713Z,6.22
2023-01-05T13:37:04.774Z,11.10
2023-01-05T13:39:47.519Z,8.00
2023-01-05T13:42:34.543Z,7.47
2023-01-05T13:45:01.699Z,5.82
2023-01-05T13:47:49.267Z,6.57
2023-01-05T13:50:37.095Z,7.53
2023-01-05T13:55:57.565Z,9.18
2023-01-05T13:58:24.693Z,11.60
2023-01-05T14:00:53.508Z,7.37
2023-01-05T14:03:27.850Z,7.93
2023-01-05T14:05:56.848Z,8.25
2023-01-05T14:08:27.980Z,7.40
2023-01-05T14:11:10.598Z,9.90
2023-01-05T14:13:47.208Z,8.00
2023-01-05T14:16:35.677Z,8.55
2023-01-05T14:19:22.950Z,10.13
2023-01-05T14:21:50.060Z,9.75
2023-01-05T14:24:37.088Z,7.80
2023-01-05T14:27:11.664Z,7.05
2023-01-05T14:29:47.186Z,7.57
2023-01-05T14:32:15.727Z,9.82
2023-01-05T14:34:47.273Z,12.07
2023-01-05T14:37:34.256Z,8.60
2023-01-05T14:40:08.777Z,8.37
2023-01-05T14:42:39.626Z,10.60
2023-01-05T14:45:08.550Z,8.27
2023-01-05T14:47:44.600Z,7.07
2023-01-05T14:50:31.675Z,9.02
2023-01-05T14:53:00.604Z,8.47
2023-01-05T14:55:44.715Z,9.93
2023-01-05T14:58:13.622Z,7.07
2023-01-05T15:00:46.295Z,8.07
2023-01-05T15:03:14.039Z,9.07
2023-01-05T15:05:44.184Z,9.47
2023-01-05T15:08:12.837Z,10.23
2023-01-05T15:10:56.807Z,9.48
2023-01-05T15:13:36.547Z,10.95
2023-01-05T15:16:06.539Z,11.70
2023-01-05T15:18:53.604Z,10.90
2023-01-05T15:21:40.717Z,8.88
2023-01-05T15:24:27.699Z,11.40
2023-01-05T15:26:54.813Z,9.27
2023-01-05T15:29:43.158Z,6.95
2023-01-05T15:32:18.770Z,12.40
2023-01-05T15:34:50.375Z,9.10
2023-01-05T15:37:21.519Z,8.27
2023-01-05T15:39:50.221Z,10.05
2023-01-05T15:42:20.322Z,8.52
2023-01-05T15:44:48.666Z,9.23
2023-01-05T15:47:17.044Z,7.13
2023-01-05T15:49:44.594Z,11.30
2023-01-05T15:52:20.690Z,9.07
2023-01-05T15:54:57.677Z,8.57
2023-01-05T15:57:24.829Z,8.23
2023-01-05T15:59:52.130Z,8.32
2023-01-05T16:02:28.442Z,9.65
2023-01-05T16:05:15.516Z,12.20
2023-01-05T16:07:45.022Z,8.48
2023-01-05T16:10:20.561Z,10.65
2023-01-05T16:12:50.491Z,13.63
2023-01-05T16:15:20.485Z,11.35
2023-01-05T16:17:47.672Z,10.05
2023-01-05T16:20:18.632Z,11.77
2023-01-05T16:22:49.122Z,12.15
2023-01-05T16:25:19.015Z,11.52
2023-01-05T16:27:48.090Z,8.60
2023-01-05T16:30:15.684Z,10.15
2023-01-05T16:32:43.440Z,13.63
2023-01-05T16:35:33.123Z,10.50
2023-01-05T16:38:07.580Z,12.55
2023-01-05T16:40:36.250Z,10.85
2023-01-05T16:43:03.655Z,10.95
2023-01-05T16:45:33.291Z,12.17
2023-01-05T16:48:00.447Z,12.57
2023-01-05T16:50:30.802Z,11.73
2023-01-05T16:53:04.005Z,14.18
2023-01-05T16:55:31.104Z,9.85
2023-01-05T16:57:59.561Z,14.13
2023-01-05T17:00:26.843Z,8.93
2023-01-05T17:02:54.911Z,14.95
2023-01-05T17:05:24.307Z,9.93
2023-01-05T17:07:56.817Z,7.93
2023-01-05T17:10:24.835Z,11.77
2023-01-05T17:12:55.924Z,12.55
2023-01-05T17:15:24.505Z,13.83
2023-01-05T17:17:55.245Z,9.88
2023-01-05T17:20:23.108Z,12.73
2023-01-05T17:22:50.579Z,11.75
2023-01-05T17:25:18.016Z,10.55
2023-01-05T17:27:46.252Z,10.45
2023-01-05T17:30:16.267Z,11.63
2023-01-05T17:32:43.422Z,9.90
2023-01-05T17:35:10.690Z,10.68
2023-01-05T17:37:37.912Z,10.48
2023-01-05T17:40:05.236Z,9.63
2023-01-05T17:42:47.982Z,11.00
2023-01-05T17:45:17.045Z,9.00
2023-01-05T17:47:44.677Z,10.93
2023-01-05T17:50:14.129Z,12.47
2023-01-05T17:52:41.431Z,9.43
2023-01-05T17:55:08.935Z,10.95
2023-01-05T17:57:36.130Z,12.07
2023-01-05T18:00:05.559Z,10.32
2023-01-05T18:02:33.127Z,11.73
2023-01-05T18:05:00.623Z,13.00
2023-01-05T18:07:30.886Z,11.80
2023-01-05T18:09:58.491Z,11.10
2023-01-05T18:12:26.003Z,15.68
2023-01-05T18:14:53.180Z,13.43
2023-01-05T18:17:20.695Z,13.38
2023-01-05T18:19:48.385Z,13.80
2023-01-05T18:22:15.610Z,10.90
2023-01-05T18:24:43.246Z,13.27
2023-01-05T18:27:10.948Z,12.07
2023-01-05T18:29:38.511Z,12.27
2023-01-05T18:32:06.467Z,11.77
2023-01-05T18:34:33.716Z,8.87
2023-01-05T18:37:05.997Z,14.00
2023-01-05T18:39:33.870Z,13.77
2023-01-05T18:42:01.112Z,12.48
2023-01-05T18:44:28.266Z,10.38
2023-01-05T18:46:55.418Z,9.95
2023-01-05T18:49:22.514Z,9.52
2023-01-05T18:51:51.530Z,12.95
2023-01-05T18:54:18.725Z,11.50
2023-01-05T18:56:45.898Z,10.88
2023-01-05T18:59:14.040Z,13.20
2023-01-05T19:01:42.974Z,14.55
2023-01-05T19:04:11.686Z,14.70
2023-01-05T19:06:39.282Z,14.13
2023-01-05T19:09:07.527Z,15.50
2023-01-05T19:11:35.063Z,14.83
2023-01-05T19:14:02.840Z,12.57
2023-01-05T19:16:31.069Z,12.95
2023-01-05T19:19:01.317Z,11.80
2023-01-05T19:21:29.939Z,13.95
2023-01-05T19:23:57.786Z,13.10
2023-01-05T19:26:25.543Z,13.15
2023-01-05T19:28:52.862Z,17.67
2023-01-05T19:31:20.161Z,17.25
2023-01-05T19:33:47.327Z,18.70
2023-01-05T19:36:15.697Z,23.00
2023-01-05T19:38:43.483Z,19.63
2023-01-05T19:41:12.136Z,17.50
2023-01-05T19:43:42.621Z,16.25
2023-01-05T19:46:13.515Z,12.65
2023-01-05T19:48:42.016Z,13.70
2023-01-05T19:51:10.394Z,15.43
2023-01-05T19:53:38.617Z,10.05
2023-01-05T19:56:11.658Z,13.93
2023-01-05T19:58:39.494Z,12.68
2023-01-05T20:01:09.393Z,12.52
2023-01-05T20:03:36.553Z,13.25
2023-01-05T20:06:06.217Z,12.20
2023-01-05T20:08:34.098Z,12.93
2023-01-05T20:11:09.730Z,10.32
2023-01-05T20:13:37.197Z,9.85
2023-01-05T20:16:05.610Z,11.93
2023-01-05T20:18:32.846Z,13.65
2023-01-05T20:21:01.200Z,13.50
2023-01-05T20:23:37.754Z,10.30
2023-01-05T20:26:09.658Z,9.25
2023-01-05T20:28:36.987Z,11.27
2023-01-05T20:31:04.357Z,10.20
2023-01-05T20:33:31.752Z,11.25
2023-01-05T20:35:59.053Z,17.25
2023-01-05T20:38:26.282Z,14.18
2023-01-05T20:40:53.452Z,12.40
2023-01-05T20:43:20.556Z,13.85
2023-01-05T20:45:47.700Z,12.57
2023-01-05T20:48:14.882Z,13.15
2023-01-05T20:50:42.062Z,8.82
2023-01-05T20:53:09.379Z,14.27
2023-01-05T20:55:40.385Z,13.32
2023-01-05T20:58:07.730Z,12.82
2023-01-05T21:00:34.964Z,10.65
2023-01-05T21:03:21.992Z,10.77
2023-01-05T21:05:49.127Z,8.80
2023-01-05T21:08:16.276Z,13.48
2023-01-05T21:10:44.164Z,11.27
2023-01-05T21:13:32.010Z,9.90
2023-01-05T21:16:01.095Z,11.48
2023-01-05T21:18:28.439Z,15.43
2023-01-05T21:20:55.599Z,11.35
2023-01-05T21:23:23.339Z,12.48
2023-01-05T21:26:05.860Z,10.93
2023-01-05T21:28:36.717Z,11.70
2023-01-05T21:31:05.406Z,13.30
2023-01-05T21:33:32.657Z,10.57
2023-01-05T21:36:00.261Z,11.25
2023-01-05T21:39:02.124Z,13.25
2023-01-05T21:41:14.688Z,12.95
2023-01-05T21:43:42.991Z,8.88
2023-01-05T21:46:12.104Z,12.75
2023-01-05T21:48:39.801Z,10.48
2023-01-05T21:51:26.842Z,11.65
2023-01-05T21:54:13.897Z,14.32
2023-01-05T21:56:44.414Z,12.37
2023-01-05T21:59:11.571Z,14.63
2023-01-05T22:01:39.489Z,11.13
2023-01-05T22:04:06.888Z,8.70
2023-01-05T22:06:34.047Z,13.80
2023-01-05T22:09:01.273Z,10.98
2023-01-05T22:11:28.460Z,10.35
2023-01-05T22:13:55.818Z,15.00
2023-01-05T22:16:22.985Z,11.43
2023-01-05T22:18:50.326Z,10.45
2023-01-05T22:21:17.587Z,9.70
2023-01-05T22:23:44.905Z,12.55
2023-01-05T22:26:13.146Z,8.48
2023-01-05T22:28:41.101Z,10.60
2023-01-05T22:31:08.374Z,9.77
2023-01-05T22:33:36.706Z,11.13
2023-01-05T22:36:03.997Z,15.13
2023-01-05T22:38:31.214Z,11.07
2023-01-05T22:40:59.382Z,11.70
2023-01-05T22:43:27.443Z,7.28
2023-01-05T22:45:54.731Z,12.82
2023-01-05T22:48:22.811Z,10.30
2023-01-05T22:50:49.962Z,11.30
2023-01-05T22:53:17.159Z,12.55
2023-01-05T22:55:44.696Z,11.10
2023-01-05T22:58:12.101Z,10.68
2023-01-05T23:00:39.279Z,11.57
2023-01-05T23:03:06.480Z,11.02
2023-01-05T23:05:33.649Z,15.10
2023-01-05T23:08:00.803Z,13.93
2023-01-05T23:10:28.114Z,14.77
2023-01-05T23:12:55.296Z,12.50
2023-01-05T23:15:22.660Z,9.98
2023-01-05T23:17:50.044Z,14.13
2023-01-05T23:20:17.273Z,13.83
2023-01-05T23:22:44.453Z,10.20
2023-01-05T23:25:11.600Z,11.95
2023-01-05T23:27:38.950Z,12.32
2023-01-05T23:30:06.807Z,10.50
2023-01-05T23:32:34.023Z,7.93
2023-01-05T23:35:01.144Z,5.53
2023-01-05T23:37:30.753Z,5.38
2023-01-05T23:39:57.939Z,0.80
2023-01-05T23:42:44.960Z,0.10
2023-01-05T23:45:12.177Z,0.10
2023-01-05T23:47:39.323Z,0.10
2023-01-05T23:50:06.812Z,0.17
2023-01-05T23:52:33.957Z,0.20
2023-01-05T23:55:01.085Z,1.60
2023-01-05T23:57:30.035Z,1.00
2023-01-05T23:59:57.192Z,0.28
